Terminal Aerodrome Forecast
Issued by NWS

Home | Current Version | Previous Version | Text Only | Print | Product List | Glossary On
Versions: 1 2 3 4 5 6 7 8 9 10 11 12 13 14 15
411
FTPA31 PHFO 180536
TAFSTU
TAF
NSTU 180536Z 1806/1906 VRB06KT P6SM SCT015 SCT040 BKN100
     FM180800 09012KT 6SM -SHRA SCT015 BKN035 BKN100
     FM181500 VRB06KT P6SM SCT015 SCT040 BKN100=

USA.gov is the U.S. government's official web portal to all federal, state and local government web resources and services.